Main page


Airports :

Isles of Scilly, England

St Mary's Airport

latitude: 49-55N, longitude: 006-18W, elevation: 31 m

Current weather observation

The report was made 25 minutes ago, at 17:20 UTC
Wind 11 kt from the North
Temperature 7°C
Humidity 66%
Pressure 1034 hPa
Visibility 10 km or more
Few clouds at a height of 2600 ft

METAR: EGHE 201720Z 01011KT 9999 FEW026 07/01 Q1034

Time: 17:45 (17:45 UTC)


The report was made 3 hours and 49 minutes ago, at 13:56 UTC
Forecast valid from 20 at 15 UTC to 20 at 17 UTC
Wind 14 kt from the North/Northeast
Visibility 10 km or more
Few clouds at a height of 1200 ft
Scattered clouds at a height of 3000 ft

TAF: EGHE 201356Z 2015/2017 02014KT 9999 FEW012 SCT030

Weather observations and forecasts of more than 4000 airports (METAR and TAF reports).

The available stations are represented by yellow and red dots on the map.

Hover mouse over dot to see the name of the station.

Then click to see weather observations and forecasts.

To change the map : click on the green buttons with a black cross to zoom in, on the green button with a dash to zoom out, or on the green arrows for adjacent maps.